Sea Island, GA

1:19 PM EDT on May 05, 2015 (GMT -0400)
McKinnon | | Change Station
CLOSE
Current Station
Airport
Location: Saint Simons Island,
Elevation: 20 ft
Nearby Weather Stations
Active Advisory: Flood Warning

Elev 20 ft 31.15 °N, 81.39 °W | Updated 26 minutes ago

Overcast
Overcast
77 °F
Feels Like 77 °F
N
16
Wind Variable Wind from East
Gusts 41 mph

Today
High -- | Low -- °F
--% Chance of Precip.
Yesterday
High -- | Low -- °F
Precip. -- in
6:37 AM 8:07 PM
Full, 97% visible
Pressure 30.28 in
Visibility 10.0 miles
Clouds Mostly Cloudy 5000 ft
Dew Point 59 °F
Humidity 54%
Rainfall 0.00 in
Snow Depth Not available.
UV 7 out of 12
Pollen 6.00 out of 12
Air Quality Not available.
Flu Activity Sporadic
METAR KSSI 051653Z AUTO 10014G36KT 060V180 10SM BKN050 25/15 A3028 RMK AO2 PK WND 04036/1650 SLP254 T02500150

More Conditions Fewer Conditions

Pressure 30.28 in
Visibility 10.0 miles
Clouds Mostly Cloudy 5000 ft
Dew Point 59 °F
Humidity 54%
Rainfall 0.00 in
Snow Depth Not available.
UV 7 out of 12
Pollen 6.00 out of 12
Air Quality Not available.
Flu Activity Sporadic
METAR KSSI 051653Z AUTO 10014G36KT 060V180 10SM BKN050 25/15 A3028 RMK AO2 PK WND 04036/1650 SLP254 T02500150

More Conditions Fewer Conditions

10-Day Weather Forecast

Almanac

Astronomy

May. 05, 2015 Rise Set
Actual Time
Civil Twilight
Nautical Twilight
Astronomical Twilight
Moon
Length of Visible Light
Length of Day
Tomorrow will be .
, % of the Moon is Illuminated

Today's Extremes

State Highs State Lows

Community

WunderPhotos

Upload Photos

1,818,944 photos uploaded!

WunderBlogs® & News

Nearby

Air Quality

  Air Quality AQ Index Pollutant
Not available.

Snow Depth

Station Depth Elevation

Earthquake Activity

City Distance Mag. Time & Date
Minimum magnitude displayed is 2.5.

Coastal Water Temperatures

Place Temperature

Stations

Nearby Weather Stations

Station Location Temp. Windchill Dew Point Humidity Wind Precip. Elev Updated Type
                   
Flood Warning
Statement as of 10:31 AM EDT on May 05, 2015

The Flood Warning continues for
the Altamaha river at Everett city.
* Until further notice... or until the warning is cancelled.
* At 10:15 am Tuesday the stage was 13.3 feet.
* Moderate flooding is occurring and moderate flooding is forecast.
* Flood stage is 12.0 feet.
* Forecast... the river will continue to fall to a stage of 13.3 feet
by tomorrow morning.
* Impact... at 13.0 feet... water begins to encroach upon Altamaha Park
Road and Pennick Road. Portions of Altamaha Park become inundated.
* Impact... at 12.0 feet... agricultural and Timber lands flooded. Water
begins to encroach upon Altamaha Park.
* Impact... at 10.0 feet... river begins coming out of channel banks
inundating low lying bottomlands.






               Fld observed 7am EST / 8am EDT forecast
location stg stg day time Wed Thu Fri Sat sun

Altamaha
Everett cit 12 13.3 Tue 10 am 13.3 13.1 12.8 12.6 12.3




Lat... Lon 3152 8172 3139 8162 3130 8144 3138 8142 3143 8155 3155 8162